Time,TemperatureF,DewpointF,PressureIn,WindDirection,WindDirectionDegrees,WindSpeedMPH,WindSpeedGustMPH,Humidity,HourlyPrecipIn,Conditions,Clouds,dailyrainin,SoftwareType,DateUTC
2013-12-16 00:00:00,34.7,32.4,30.26,WNW,301,1.0,2.0,91,0.00,,,0.00,meteohub,2013-12-16 06:00:00,
2013-12-16 00:05:00,34.7,32.4,30.27,WNW,301,0.0,1.0,91,0.00,,,0.00,meteohub,2013-12-16 06:05:00,
2013-12-16 00:10:00,34.5,32.2,30.27,WNW,301,0.0,1.0,91,0.00,,,0.00,meteohub,2013-12-16 06:10:00,
2013-12-16 00:15:00,34.5,32.2,30.27,WNW,301,0.0,1.0,91,0.00,,,0.00,meteohub,2013-12-16 06:15:00,
2013-12-16 00:20:00,34.5,32.2,30.27,WNW,301,0.0,2.0,91,0.00,,,0.00,meteohub,2013-12-16 06:20:00,
2013-12-16 00:25:00,34.5,32.2,30.27,WNW,300,0.0,2.0,91,0.00,,,0.00,meteohub,2013-12-16 06:25:00,
2013-12-16 00:31:00,34.3,32.0,30.27,NW,322,0.0,2.0,91,0.00,,,0.00,meteohub,2013-12-16 06:31:00,
2013-12-16 00:36:00,34.3,32.0,30.27,NW,322,0.0,2.0,91,0.00,,,0.00,meteohub,2013-12-16 06:36:00,
2013-12-16 00:41:00,34.2,31.8,30.27,West,260,0.0,2.0,91,0.00,,,0.00,meteohub,2013-12-16 06:41:00,
2013-12-16 00:46:00,34.0,31.6,30.27,West,260,0.0,1.0,91,0.00,,,0.00,meteohub,2013-12-16 06:46:00,
2013-12-16 00:51:00,34.0,31.8,30.27,West,260,0.0,1.0,92,0.00,,,0.00,meteohub,2013-12-16 06:51:00,
2013-12-16 00:56:00,34.0,31.8,30.27,West,260,0.0,0.0,92,0.00,,,0.00,meteohub,2013-12-16 06:56:00,
2013-12-16 01:01:00,33.8,31.6,30.27,West,260,0.0,0.0,92,0.00,,,0.00,meteohub,2013-12-16 07:01:00,
2013-12-16 01:06:00,33.6,31.5,30.27,West,260,0.0,1.0,92,0.00,,,0.00,meteohub,2013-12-16 07:06:00,
2013-12-16 01:11:00,33.6,31.5,30.27,WNW,284,0.0,1.0,92,0.00,,,0.00,meteohub,2013-12-16 07:11:00,
2013-12-16 01:17:00,33.6,31.5,30.27,WNW,284,0.0,1.0,92,0.00,,,0.00,meteohub,2013-12-16 07:17:00,
2013-12-16 01:22:00,33.6,31.5,30.27,WNW,284,0.0,1.0,92,0.00,,,0.00,meteohub,2013-12-16 07:22:00,
2013-12-16 01:27:00,33.4,31.3,30.28,NW,324,0.0,1.0,92,0.00,,,0.00,meteohub,2013-12-16 07:27:00,
2013-12-16 01:32:00,33.4,31.3,30.28,NW,324,0.0,1.0,92,0.00,,,0.00,meteohub,2013-12-16 07:32:00,
2013-12-16 01:37:00,33.4,31.3,30.27,SW,222,0.0,1.0,92,0.00,,,0.00,meteohub,2013-12-16 07:37:00,
2013-12-16 01:42:00,33.4,31.3,30.27,NW,322,0.0,1.0,92,0.00,,,0.00,meteohub,2013-12-16 07:42:00,
2013-12-16 01:47:00,33.4,31.3,30.27,NW,322,0.0,3.0,92,0.00,,,0.00,meteohub,2013-12-16 07:47:00,
2013-12-16 01:52:00,33.3,31.1,30.27,NW,322,0.0,3.0,92,0.00,,,0.00,meteohub,2013-12-16 07:52:00,
2013-12-16 01:57:00,33.3,31.1,30.27,NW,322,0.0,0.0,92,0.00,,,0.00,meteohub,2013-12-16 07:57:00,
2013-12-16 02:02:00,33.1,31.1,30.27,NW,322,0.0,0.0,92,0.00,,,0.00,meteohub,2013-12-16 08:02:00,
2013-12-16 02:07:00,32.9,30.9,30.27,NW,322,0.0,0.0,92,0.00,,,0.00,meteohub,2013-12-16 08:07:00,
2013-12-16 02:12:00,32.7,30.7,30.28,NW,322,0.0,0.0,92,0.00,,,0.00,meteohub,2013-12-16 08:12:00,
2013-12-16 02:17:00,32.7,30.7,30.28,NW,322,0.0,0.0,92,0.00,,,0.00,meteohub,2013-12-16 08:17:00,
2013-12-16 02:22:00,32.5,30.7,30.27,NW,322,0.0,0.0,93,0.00,,,0.00,meteohub,2013-12-16 08:22:00,
2013-12-16 02:27:00,32.5,30.7,30.27,NW,322,0.0,1.0,93,0.00,,,0.00,meteohub,2013-12-16 08:27:00,
2013-12-16 02:32:00,32.7,30.9,30.27,NW,324,0.0,1.0,93,0.00,,,0.00,meteohub,2013-12-16 08:32:00,
2013-12-16 02:37:00,32.7,30.9,30.27,NW,313,0.0,1.0,93,0.00,,,0.00,meteohub,2013-12-16 08:37:00,
2013-12-16 02:42:00,32.7,30.9,30.27,NW,313,0.0,2.0,93,0.00,,,0.00,meteohub,2013-12-16 08:42:00,
2013-12-16 02:47:00,32.7,30.9,30.27,NW,313,0.0,2.0,93,0.00,,,0.00,meteohub,2013-12-16 08:47:00,
2013-12-16 02:52:00,32.7,30.9,30.27,NW,313,1.0,2.0,93,0.00,,,0.00,meteohub,2013-12-16 08:52:00,
2013-12-16 02:57:00,32.7,30.9,30.28,NW,313,0.0,1.0,93,0.00,,,0.00,meteohub,2013-12-16 08:57:00,
2013-12-16 03:02:00,32.7,30.9,30.28,NW,313,0.0,1.0,93,0.00,,,0.00,meteohub,2013-12-16 09:02:00,
2013-12-16 03:07:00,32.7,30.9,30.28,NW,313,0.0,1.0,93,0.00,,,0.00,meteohub,2013-12-16 09:07:00,
2013-12-16 03:12:00,32.7,30.9,30.28,NW,313,0.0,1.0,93,0.00,,,0.00,meteohub,2013-12-16 09:12:00,
2013-12-16 03:17:00,32.7,30.9,30.28,NW,313,0.0,1.0,93,0.00,,,0.00,meteohub,2013-12-16 09:17:00,
2013-12-16 03:23:00,32.7,30.9,30.28,NW,313,0.0,1.0,93,0.00,,,0.00,meteohub,2013-12-16 09:23:00,
2013-12-16 03:28:00,32.7,30.9,30.28,NW,313,0.0,1.0,93,0.00,,,0.00,meteohub,2013-12-16 09:28:00,
2013-12-16 03:33:00,32.7,30.9,30.28,NW,313,0.0,1.0,93,0.00,,,0.00,meteohub,2013-12-16 09:33:00,
2013-12-16 03:38:00,32.7,30.9,30.28,NW,324,1.0,1.0,93,0.00,,,0.00,meteohub,2013-12-16 09:38:00,
2013-12-16 03:43:00,32.7,30.9,30.28,NW,324,0.0,4.0,93,0.00,,,0.00,meteohub,2013-12-16 09:43:00,
2013-12-16 03:48:00,32.5,30.7,30.28,NW,324,0.0,4.0,93,0.00,,,0.00,meteohub,2013-12-16 09:48:00,
2013-12-16 03:53:00,32.5,30.7,30.28,NW,324,0.0,4.0,93,0.00,,,0.00,meteohub,2013-12-16 09:53:00,
2013-12-16 03:58:00,32.5,30.7,30.28,NW,324,0.0,1.0,93,0.00,,,0.00,meteohub,2013-12-16 09:58:00,
2013-12-16 04:03:00,32.5,30.7,30.28,NW,324,0.0,1.0,93,0.00,,,0.00,meteohub,2013-12-16 10:03:00,
2013-12-16 04:08:00,32.4,30.6,30.28,NW,324,0.0,1.0,93,0.00,,,0.00,meteohub,2013-12-16 10:08:00,
2013-12-16 04:14:00,32.4,30.6,30.28,NW,324,0.0,1.0,93,0.00,,,0.00,meteohub,2013-12-16 10:14:00,
2013-12-16 04:19:00,32.4,30.6,30.28,NW,324,0.0,1.0,93,0.00,,,0.00,meteohub,2013-12-16 10:19:00,
2013-12-16 04:24:00,32.4,30.6,30.27,NNE,13,0.0,2.0,93,0.00,,,0.00,meteohub,2013-12-16 10:24:00,
2013-12-16 04:29:00,32.4,30.6,30.28,NNE,13,0.0,2.0,93,0.00,,,0.00,meteohub,2013-12-16 10:29:00,
2013-12-16 04:34:00,32.2,30.4,30.28,NNE,13,0.0,3.0,93,0.00,,,0.00,meteohub,2013-12-16 10:34:00,
2013-12-16 04:39:00,32.2,30.4,30.28,North,349,0.0,3.0,93,0.00,,,0.00,meteohub,2013-12-16 10:39:00,
2013-12-16 04:44:00,32.2,30.4,30.28,North,349,0.0,2.0,93,0.00,,,0.00,meteohub,2013-12-16 10:44:00,
2013-12-16 04:50:00,32.0,30.2,30.28,NNE,27,0.0,2.0,93,0.00,,,0.00,meteohub,2013-12-16 10:50:00,
2013-12-16 04:55:00,32.0,30.2,30.28,NNE,27,0.0,2.0,93,0.00,,,0.00,meteohub,2013-12-16 10:55:00,
2013-12-16 05:00:00,31.8,30.0,30.28,NNE,27,0.0,2.0,93,0.00,,,0.00,meteohub,2013-12-16 11:00:00,
2013-12-16 05:05:00,31.8,30.0,30.28,NNE,31,0.0,2.0,93,0.00,,,0.00,meteohub,2013-12-16 11:05:00,
2013-12-16 05:10:00,31.8,30.0,30.28,NNE,31,0.0,2.0,93,0.00,,,0.00,meteohub,2013-12-16 11:10:00,
2013-12-16 05:15:00,31.8,30.0,30.28,NNE,31,1.0,2.0,93,0.00,,,0.00,meteohub,2013-12-16 11:15:00,
2013-12-16 05:20:00,31.6,29.8,30.27,NNE,32,0.0,2.0,93,0.00,,,0.00,meteohub,2013-12-16 11:20:00,
2013-12-16 05:25:00,31.6,29.8,30.28,NNE,31,0.0,2.0,93,0.00,,,0.00,meteohub,2013-12-16 11:25:00,
2013-12-16 05:30:00,31.5,29.7,30.28,NNE,31,0.0,1.0,93,0.00,,,0.00,meteohub,2013-12-16 11:30:00,
2013-12-16 05:36:00,31.5,29.7,30.28,NNE,31,0.0,0.0,93,0.00,,,0.00,meteohub,2013-12-16 11:36:00,
2013-12-16 05:41:00,31.5,29.7,30.28,NNE,31,0.0,0.0,93,0.00,,,0.00,meteohub,2013-12-16 11:41:00,
2013-12-16 05:46:00,31.3,29.5,30.28,NNE,31,0.0,0.0,93,0.00,,,0.00,meteohub,2013-12-16 11:46:00,
2013-12-16 05:51:00,31.3,29.5,30.28,NNE,31,0.0,0.0,93,0.00,,,0.00,meteohub,2013-12-16 11:51:00,
2013-12-16 05:56:00,30.9,29.1,30.29,NNE,31,0.0,0.0,93,0.00,,,0.00,meteohub,2013-12-16 11:56:00,
2013-12-16 06:01:00,30.7,28.9,30.29,NNE,31,0.0,0.0,93,0.00,,,0.00,meteohub,2013-12-16 12:01:00,
2013-12-16 06:06:00,30.7,28.9,30.29,NNE,31,0.0,0.0,93,0.00,,,0.00,meteohub,2013-12-16 12:06:00,
2013-12-16 06:11:00,30.6,29.1,30.29,NNE,31,0.0,0.0,94,0.00,,,0.00,meteohub,2013-12-16 12:11:00,
2013-12-16 06:16:00,30.6,28.8,30.29,NNE,32,0.0,0.0,93,0.00,,,0.00,meteohub,2013-12-16 12:16:00,
2013-12-16 06:22:00,30.6,29.1,30.29,NNE,32,0.0,0.0,94,0.00,,,0.00,meteohub,2013-12-16 12:22:00,
2013-12-16 06:27:00,30.6,29.1,30.29,NNE,31,0.0,0.0,94,0.00,,,0.00,meteohub,2013-12-16 12:27:00,
2013-12-16 06:32:00,30.6,29.1,30.29,NNE,31,0.0,1.0,94,0.00,,,0.00,meteohub,2013-12-16 12:32:00,
2013-12-16 06:37:00,30.6,29.1,30.30,NNE,31,0.0,1.0,94,0.00,,,0.00,meteohub,2013-12-16 12:37:00,
2013-12-16 06:42:00,30.6,29.1,30.30,NNE,31,0.0,0.0,94,0.00,,,0.00,meteohub,2013-12-16 12:42:00,
2013-12-16 06:47:00,30.7,29.3,30.30,West,261,0.0,1.0,94,0.00,,,0.00,meteohub,2013-12-16 12:47:00,
2013-12-16 06:52:00,30.9,29.7,30.30,WSW,252,0.0,2.0,95,0.00,,,0.00,meteohub,2013-12-16 12:52:00,
2013-12-16 06:57:00,31.3,29.8,30.30,WSW,252,0.0,2.0,94,0.00,,,0.00,meteohub,2013-12-16 12:57:00,
2013-12-16 07:02:00,31.5,30.0,30.30,North,354,0.0,2.0,94,0.00,,,0.00,meteohub,2013-12-16 13:02:00,
2013-12-16 07:07:00,31.5,30.2,30.30,North,354,0.0,2.0,95,0.00,,,0.00,meteohub,2013-12-16 13:07:00,
2013-12-16 07:12:00,31.5,30.0,30.30,North,354,0.0,2.0,94,0.00,,,0.00,meteohub,2013-12-16 13:12:00,
2013-12-16 07:17:00,31.6,30.2,30.30,North,354,0.0,2.0,94,0.00,,,0.00,meteohub,2013-12-16 13:17:00,
2013-12-16 07:22:00,31.8,30.6,30.30,NW,305,0.0,2.0,95,0.00,,,0.00,meteohub,2013-12-16 13:22:00,
2013-12-16 07:27:00,32.4,30.7,30.30,NW,316,0.0,2.0,94,0.00,,,0.00,meteohub,2013-12-16 13:27:00,
2013-12-16 07:32:00,32.7,31.1,30.30,NNE,31,2.0,2.0,94,0.00,,,0.00,meteohub,2013-12-16 13:32:00,
2013-12-16 07:37:00,33.3,31.6,30.30,NE,35,1.0,4.0,94,0.00,,,0.00,meteohub,2013-12-16 13:37:00,
2013-12-16 07:42:00,33.4,31.6,30.30,NE,35,1.0,4.0,93,0.00,,,0.00,meteohub,2013-12-16 13:42:00,
2013-12-16 07:47:00,33.8,32.0,30.30,North,4,2.0,4.0,93,0.00,,,0.00,meteohub,2013-12-16 13:47:00,
2013-12-16 07:52:00,34.2,32.0,30.30,NNE,33,0.0,3.0,92,0.00,,,0.00,meteohub,2013-12-16 13:52:00,
2013-12-16 07:57:00,34.3,32.0,30.31,NW,318,0.0,3.0,91,0.00,,,0.00,meteohub,2013-12-16 13:57:00,
2013-12-16 08:02:00,34.9,32.5,30.31,WNW,303,0.0,3.0,91,0.00,,,0.00,meteohub,2013-12-16 14:02:00,
2013-12-16 08:07:00,35.2,32.5,30.31,NNE,28,3.0,4.0,90,0.00,,,0.00,meteohub,2013-12-16 14:07:00,
2013-12-16 08:12:00,35.6,32.7,30.31,East,84,1.0,4.0,89,0.01,,,0.01,meteohub,2013-12-16 14:12:00,
2013-12-16 08:17:00,36.1,33.3,30.31,NE,41,0.0,4.0,89,0.04,,,0.04,meteohub,2013-12-16 14:17:00,
2013-12-16 08:22:00,36.7,33.8,30.32,NE,43,0.0,4.0,89,0.06,,,0.06,meteohub,2013-12-16 14:22:00,
2013-12-16 08:27:00,37.0,33.8,30.32,NE,48,0.0,3.0,88,0.07,,,0.07,meteohub,2013-12-16 14:27:00,
2013-12-16 08:32:00,37.4,34.2,30.32,ENE,76,1.0,3.0,88,0.09,,,0.09,meteohub,2013-12-16 14:32:00,
2013-12-16 08:37:00,37.9,34.2,30.32,SE,144,2.0,3.0,86,0.10,,,0.10,meteohub,2013-12-16 14:37:00,
2013-12-16 08:42:00,38.1,34.3,30.32,NW,322,1.0,3.0,86,0.11,,,0.11,meteohub,2013-12-16 14:42:00,
2013-12-16 08:47:00,38.7,35.1,30.32,North,4,1.0,4.0,87,0.12,,,0.12,meteohub,2013-12-16 14:47:00,
2013-12-16 08:52:00,39.0,35.2,30.32,WSW,243,0.0,4.0,86,0.12,,,0.12,meteohub,2013-12-16 14:52:00,
2013-12-16 08:57:00,39.7,35.6,30.33,West,270,1.0,4.0,85,0.13,,,0.13,meteohub,2013-12-16 14:57:00,
2013-12-16 09:02:00,40.3,35.8,30.32,SSE,148,0.0,4.0,84,0.14,,,0.14,meteohub,2013-12-16 15:02:00,
2013-12-16 09:07:00,40.8,36.3,30.33,West,280,2.0,4.0,84,0.14,,,0.14,meteohub,2013-12-16 15:07:00,